createdAt,value
2022-10-22T00:00:27.857Z,79.67
2022-10-22T00:01:27.847Z,78.66
2022-10-22T00:02:27.841Z,78.86
2022-10-22T00:03:27.832Z,78.52
2022-10-22T00:04:27.818Z,79.03
2022-10-22T00:05:27.807Z,77.42
2022-10-22T00:06:27.800Z,78.42
2022-10-22T00:07:27.788Z,77.51
2022-10-22T00:08:27.776Z,78.32
2022-10-22T00:09:27.772Z,78.42
2022-10-22T00:10:27.754Z,78.52
2022-10-22T00:11:27.751Z,78.12
2022-10-22T00:12:27.732Z,77.38
2022-10-22T00:13:27.726Z,77.17
2022-10-22T00:14:27.711Z,77.17
2022-10-22T00:15:27.701Z,76.91
2022-10-22T00:16:27.695Z,77.72
2022-10-22T00:17:27.679Z,77.17
2022-10-22T00:18:27.672Z,76.97
2022-10-22T00:19:27.667Z,77.14
2022-10-22T00:20:27.645Z,76.34
2022-10-22T00:21:27.635Z,77.58
2022-10-22T00:22:27.631Z,78.66
2022-10-22T00:23:27.615Z,78.83
2022-10-22T00:24:27.607Z,78.08
2022-10-22T00:25:27.613Z,77.38
2022-10-22T00:26:27.585Z,77.24
2022-10-22T00:27:27.578Z,76.8
2022-10-22T00:28:27.568Z,76.1
2022-10-22T00:29:27.555Z,76.64
2022-10-22T00:30:27.540Z,76.94
2022-10-22T00:31:27.532Z,76.84
2022-10-22T00:32:27.518Z,77.08
2022-10-22T00:33:27.509Z,76.87
2022-10-22T00:34:27.500Z,77.78
2022-10-22T00:35:27.492Z,77.92
2022-10-22T00:36:28.487Z,78.92
2022-10-22T00:37:27.469Z,78.06
2022-10-22T00:38:27.456Z,79.06
2022-10-22T00:39:27.446Z,79.06
2022-10-22T00:40:27.439Z,78.63
2022-10-22T00:41:27.431Z,78.66
2022-10-22T00:42:27.416Z,78.22
2022-10-22T00:43:27.407Z,78.63
2022-10-22T00:44:27.392Z,78.08
2022-10-22T00:45:27.387Z,77.17
2022-10-22T00:46:27.382Z,76.57
2022-10-22T00:47:27.365Z,76.47
2022-10-22T00:48:27.347Z,76.07
2022-10-22T00:49:27.340Z,75.93
2022-10-22T00:50:27.327Z,76.43
2022-10-22T00:51:27.326Z,76.23
2022-10-22T00:52:27.315Z,76.23
2022-10-22T00:53:27.302Z,76.23
2022-10-22T00:54:27.287Z,76.23
2022-10-22T00:55:27.276Z,76.54
2022-10-22T00:56:27.266Z,76.37
2022-10-22T00:57:27.264Z,76.84
2022-10-22T00:58:27.248Z,76.03
2022-10-22T00:59:27.240Z,76.14
2022-10-22T01:00:27.223Z,76.14
2022-10-22T01:01:27.214Z,76.23
2022-10-22T01:02:27.208Z,75.93
2022-10-22T01:03:27.192Z,75.7
2022-10-22T01:04:27.193Z,76.3
2022-10-22T01:05:27.168Z,76.1
2022-10-22T01:06:27.163Z,76.2
2022-10-22T01:07:27.155Z,76.74
2022-10-22T01:08:27.140Z,76.84
2022-10-22T01:09:27.126Z,76.97
2022-10-22T01:10:27.124Z,77.48
2022-10-22T01:11:27.110Z,76.87
2022-10-22T01:12:27.096Z,77.38
2022-10-22T01:13:27.085Z,77.17
2022-10-22T01:14:27.080Z,77.48
2022-10-22T01:15:27.065Z,77.68
2022-10-22T01:16:27.058Z,77.17
2022-10-22T01:17:27.042Z,77.48
2022-10-22T01:18:27.042Z,78.39
2022-10-22T01:19:27.019Z,77.66
2022-10-22T01:20:27.019Z,78.56
2022-10-22T01:21:28.003Z,79.3
2022-10-22T01:22:26.992Z,79.44
2022-10-22T01:23:26.976Z,80.45
2022-10-22T01:24:26.982Z,80.45
2022-10-22T01:25:26.957Z,80.05
2022-10-22T01:26:26.945Z,80.62
2022-10-22T01:27:26.940Z,78.46
2022-10-22T01:28:26.927Z,78.76
2022-10-22T01:29:26.912Z,79.16
2022-10-22T01:30:26.907Z,78.76
2022-10-22T01:31:26.898Z,78.76
2022-10-22T01:32:26.884Z,79.16
2022-10-22T01:33:26.880Z,79
2022-10-22T01:34:26.862Z,78.96
2022-10-22T01:35:26.853Z,78.76
2022-10-22T01:36:26.848Z,78.66
2022-10-22T01:37:26.829Z,78.36
2022-10-22T01:38:26.820Z,78.52
2022-10-22T01:39:26.807Z,78.63
2022-10-22T01:40:26.806Z,77.95
2022-10-22T01:41:26.792Z,77.95
2022-10-22T01:42:26.783Z,78.56
2022-10-22T01:43:26.786Z,79
2022-10-22T01:44:26.756Z,78.8
2022-10-22T01:45:26.747Z,78.5
2022-10-22T01:46:26.746Z,78.8
2022-10-22T01:47:26.721Z,78.76
2022-10-22T01:48:26.721Z,78.46
2022-10-22T01:49:26.707Z,78.16
2022-10-22T01:50:26.690Z,78.66
2022-10-22T01:51:26.681Z,78.66
2022-10-22T01:52:26.669Z,77.62
2022-10-22T01:53:26.660Z,77.08
2022-10-22T01:54:26.655Z,76.37
2022-10-22T01:55:26.644Z,76.91
2022-10-22T01:56:26.628Z,76.71
2022-10-22T01:57:26.616Z,76.61
2022-10-22T01:58:26.607Z,76.61
2022-10-22T01:59:26.593Z,76.91
2022-10-22T02:00:26.581Z,77.25
2022-10-22T02:01:26.575Z,76.84
2022-10-22T02:02:26.570Z,76.95
2022-10-22T02:03:26.630Z,78.76
2022-10-22T02:04:26.555Z,77.72
2022-10-22T02:05:26.534Z,76.67
2022-10-22T02:06:26.526Z,76.51
2022-10-22T02:07:26.511Z,76.47
2022-10-22T02:08:26.504Z,76.27
2022-10-22T02:09:26.517Z,75.7
2022-10-22T02:10:26.478Z,75.5
2022-10-22T02:11:26.474Z,75.46
2022-10-22T02:12:26.458Z,75.96
2022-10-22T02:13:26.448Z,76.07
2022-10-22T02:14:26.441Z,76.07
2022-10-22T02:15:26.433Z,75.26
2022-10-22T02:16:26.430Z,74.66
2022-10-22T02:17:26.412Z,74.22
2022-10-22T02:18:26.396Z,74.86
2022-10-22T02:19:26.389Z,74.66
2022-10-22T02:20:26.372Z,74.05
2022-10-22T02:21:26.359Z,74.35
2022-10-22T02:22:26.351Z,74.59
2022-10-22T02:23:26.359Z,75.34
2022-10-22T02:24:26.330Z,75.98
2022-10-22T02:25:26.323Z,77.06
2022-10-22T02:26:26.310Z,76.28
2022-10-22T02:27:26.297Z,76.28
2022-10-22T02:28:26.289Z,75.94
2022-10-22T02:29:26.278Z,75.98
2022-10-22T02:30:33.886Z,76.42
2022-10-22T02:31:26.252Z,76.11
2022-10-22T02:32:33.891Z,77.02
2022-10-22T02:33:34.872Z,76.64
2022-10-22T02:34:33.878Z,75.7
2022-10-22T02:35:34.869Z,74.35
2022-10-22T02:36:33.854Z,74.49
2022-10-22T02:37:26.192Z,75.03
2022-10-22T02:38:33.826Z,74.9
2022-10-22T02:39:34.794Z,74.05
2022-10-22T02:40:33.809Z,74.26
2022-10-22T02:41:26.163Z,73.35
2022-10-22T02:42:26.144Z,73.85
2022-10-22T02:43:26.141Z,73.99
2022-10-22T02:44:26.125Z,74.9
2022-10-22T02:45:26.106Z,74.05
2022-10-22T02:46:26.116Z,74.26
2022-10-22T02:47:26.106Z,74.63
2022-10-22T02:48:26.083Z,75.27
2022-10-22T02:49:26.069Z,75.31
2022-10-22T02:50:26.062Z,76.21
2022-10-22T02:51:26.044Z,76.21
2022-10-22T02:52:26.044Z,76.14
2022-10-22T02:53:26.025Z,74.46
2022-10-22T02:54:26.012Z,74.32
2022-10-22T02:55:26.032Z,74.52
2022-10-22T02:56:26.033Z,75.03
2022-10-22T02:57:26.018Z,74.83
2022-10-22T02:58:26.002Z,74.49
2022-10-22T02:59:25.991Z,74.32
2022-10-22T03:00:25.998Z,75.16
2022-10-22T03:01:26.023Z,76.31
2022-10-22T03:02:26.986Z,76.75
2022-10-22T03:03:25.977Z,76.92
2022-10-22T03:04:26.054Z,77.15
2022-10-22T03:05:25.922Z,77.15
2022-10-22T03:07:25.886Z,77.02
2022-10-22T03:08:25.862Z,77.62
2022-10-22T03:09:25.854Z,76.95
2022-10-22T03:10:25.854Z,76.58
2022-10-22T03:11:25.836Z,75.74
2022-10-22T03:12:25.822Z,74.63
2022-10-22T03:13:25.820Z,75.13
2022-10-22T03:14:25.802Z,75.74
2022-10-22T03:15:25.810Z,74.69
2022-10-22T03:16:25.779Z,74.9
2022-10-22T03:17:25.781Z,75.13
2022-10-22T03:18:25.763Z,76.04
2022-10-22T03:19:25.752Z,76.24
2022-10-22T03:20:25.746Z,76.18
2022-10-22T03:21:25.736Z,76.07
2022-10-22T03:22:25.721Z,75.94
2022-10-22T03:23:25.708Z,76.58
2022-10-22T03:24:25.700Z,76.14
2022-10-22T03:25:25.686Z,75.84
2022-10-22T03:26:25.673Z,76.24
2022-10-22T03:27:25.675Z,76.24
2022-10-22T03:28:25.652Z,75.8
2022-10-22T03:29:25.646Z,75.2
2022-10-22T03:30:25.632Z,76.1
2022-10-22T03:31:25.624Z,76.2
2022-10-22T03:32:25.613Z,76.4
2022-10-22T03:33:25.610Z,76.51
2022-10-22T03:34:25.590Z,74.55
2022-10-22T03:35:25.581Z,75.16
2022-10-22T03:36:25.572Z,75.16
2022-10-22T03:37:25.560Z,74.66
2022-10-22T03:38:25.556Z,74.66
2022-10-22T03:39:25.553Z,76.1
2022-10-22T03:40:25.556Z,76.44
2022-10-22T03:41:25.519Z,77.83
2022-10-22T03:42:25.507Z,78.43
2022-10-22T03:43:25.498Z,78.03
2022-10-22T03:44:25.501Z,78.17
2022-10-22T03:45:25.511Z,79.08
2022-10-22T03:46:25.473Z,79.48
2022-10-22T03:47:25.456Z,79.79
2022-10-22T03:48:25.461Z,78.84
2022-10-22T03:49:25.443Z,78.9
2022-10-22T03:50:25.434Z,79.21
2022-10-22T03:51:25.422Z,78.39
2022-10-22T03:52:25.404Z,78.46
2022-10-22T03:53:25.393Z,78.39
2022-10-22T03:54:25.384Z,77.99
2022-10-22T03:55:25.379Z,78.7
2022-10-22T03:56:25.364Z,79
2022-10-22T03:57:25.354Z,77.99
2022-10-22T03:58:25.343Z,78.84
2022-10-22T03:59:25.333Z,78.97
2022-10-22T04:00:25.321Z,79.79
2022-10-22T04:01:25.316Z,79.28
2022-10-22T04:02:25.303Z,80.19
2022-10-22T04:03:25.296Z,79.64
2022-10-22T04:04:25.275Z,79.44
2022-10-22T04:05:25.268Z,79.1
2022-10-22T04:06:25.260Z,78.84
2022-10-22T04:07:25.247Z,78.9
2022-10-22T04:08:25.237Z,78.39
2022-10-22T04:09:25.230Z,78.19
2022-10-22T04:10:25.220Z,78.09
2022-10-22T04:11:25.205Z,78.53
2022-10-22T04:12:25.201Z,79.14
2022-10-22T04:13:25.183Z,79.34
2022-10-22T04:14:25.170Z,78.9
2022-10-22T04:15:25.185Z,79.1
2022-10-22T04:16:25.149Z,78.5
2022-10-22T04:17:25.139Z,77.99
2022-10-22T04:18:25.137Z,78.63
2022-10-22T04:19:25.122Z,78.59
2022-10-22T04:20:25.108Z,78.09
2022-10-22T04:21:25.104Z,78.3
2022-10-22T04:22:25.087Z,78.63
2022-10-22T04:23:25.083Z,78.7
2022-10-22T04:24:25.064Z,77.89
2022-10-22T04:25:25.056Z,78.43
2022-10-22T04:26:25.054Z,78.13
2022-10-22T04:27:25.043Z,78.74
2022-10-22T04:28:25.024Z,79.88
2022-10-22T04:29:25.014Z,79.48
2022-10-22T04:30:24.999Z,79.38
2022-10-22T04:31:24.993Z,79.68
2022-10-22T04:32:24.985Z,79.88
2022-10-22T04:33:24.993Z,78.9
2022-10-22T04:34:24.965Z,77.86
2022-10-22T04:36:24.943Z,76.71
2022-10-22T04:37:24.937Z,77.66
2022-10-22T04:38:24.916Z,77.86
2022-10-22T04:39:24.913Z,78.5
2022-10-22T04:40:24.902Z,78.9
2022-10-22T04:41:24.894Z,78.8
2022-10-22T04:42:24.878Z,78.7
2022-10-22T04:43:24.870Z,79.24
2022-10-22T04:44:24.855Z,79.54
2022-10-22T04:45:24.854Z,79.71
2022-10-22T04:46:24.846Z,78.8
2022-10-22T04:47:24.829Z,78.63
2022-10-22T04:48:24.812Z,79.58
2022-10-22T04:49:24.807Z,79.54
2022-10-22T04:50:24.791Z,79.3
2022-10-22T04:51:24.799Z,79.24
2022-10-22T04:52:24.776Z,79.34
2022-10-22T04:53:24.764Z,79.24
2022-10-22T04:54:24.750Z,79.58
2022-10-22T04:55:24.736Z,80.05
2022-10-22T04:56:24.729Z,79.44
2022-10-22T04:57:24.737Z,79.38
2022-10-22T04:58:24.713Z,79.44
2022-10-22T04:59:24.725Z,79.58
2022-10-22T05:00:24.693Z,80.59
2022-10-22T05:01:24.679Z,79.62
2022-10-22T05:02:24.669Z,80.53
2022-10-22T05:03:24.660Z,80.63
2022-10-22T05:04:24.663Z,79.68
2022-10-22T05:05:24.636Z,79.99
2022-10-22T05:06:24.624Z,79.99
2022-10-22T05:07:24.611Z,80.53
2022-10-22T05:08:24.604Z,80.22
2022-10-22T05:09:24.594Z,80.53
2022-10-22T05:10:24.598Z,81.07
2022-10-22T05:11:24.575Z,81.13
2022-10-22T05:12:24.560Z,80.02
2022-10-22T05:13:24.548Z,80.29
2022-10-22T05:14:24.540Z,79.88
2022-10-22T05:15:24.532Z,80.22
2022-10-22T05:16:24.538Z,80.32
2022-10-22T05:17:24.505Z,79.62
2022-10-22T05:18:24.497Z,80.32
2022-10-22T05:19:24.484Z,79.86
2022-10-22T05:20:24.478Z,80.1
2022-10-22T05:21:24.464Z,80.66
2022-10-22T05:22:24.466Z,79.66
2022-10-22T05:23:24.448Z,79.62
2022-10-22T05:24:24.434Z,79.52
2022-10-22T05:25:24.425Z,79.11
2022-10-22T05:26:24.422Z,79.35
2022-10-22T05:27:24.403Z,79.86
2022-10-22T05:28:24.401Z,79.35
2022-10-22T05:29:24.382Z,79.35
2022-10-22T05:30:24.379Z,80.2
2022-10-22T05:31:24.365Z,80.16
2022-10-22T05:32:24.351Z,79.32
2022-10-22T05:33:24.359Z,78.5
2022-10-22T05:34:24.361Z,78.71
2022-10-22T05:35:24.325Z,79.72
2022-10-22T05:36:24.306Z,79.92
2022-10-22T05:37:24.296Z,80.06
2022-10-22T05:38:24.287Z,80.46
2022-10-22T05:39:24.277Z,80.46
2022-10-22T05:40:24.285Z,80.32
2022-10-22T05:41:24.254Z,79.92
2022-10-22T05:42:24.253Z,79.38
2022-10-22T05:43:24.235Z,79.17
2022-10-22T05:44:24.230Z,78.88
2022-10-22T05:45:24.222Z,79.17
2022-10-22T05:46:24.229Z,79.21
2022-10-22T05:47:24.195Z,79.82
2022-10-22T05:48:24.184Z,80.77
2022-10-22T05:49:24.172Z,80.97
2022-10-22T05:50:24.163Z,81.37
2022-10-22T05:51:24.168Z,81.17
2022-10-22T05:52:24.161Z,80.87
2022-10-22T05:53:24.130Z,81.13
2022-10-22T05:54:31.923Z,79.24
2022-10-22T06:03:32.430Z,78.46
2022-10-22T06:07:29.613Z,76.57
2022-10-22T06:12:22.541Z,76.37
2022-10-22T06:13:22.536Z,77.75
2022-10-22T06:14:22.479Z,79.04
2022-10-22T06:15:22.409Z,79.16
2022-10-22T06:16:22.421Z,78.42
2022-10-22T06:17:22.406Z,79.03
2022-10-22T06:18:22.371Z,78.76
2022-10-22T06:19:22.419Z,79.71
2022-10-22T06:20:22.406Z,79.21
2022-10-22T06:21:22.456Z,79.41
2022-10-22T06:22:23.349Z,80.62
2022-10-22T06:23:22.314Z,80.96
2022-10-22T06:24:22.414Z,80.82
2022-10-22T06:25:22.426Z,80.21
2022-10-22T06:26:22.428Z,80.21
2022-10-22T06:27:22.320Z,80.62
2022-10-22T06:29:22.305Z,80.27
2022-10-22T06:30:23.249Z,80.41
2022-10-22T06:31:22.282Z,80.21
2022-10-22T06:32:22.360Z,80.72
2022-10-22T06:33:22.242Z,80.38
2022-10-22T06:34:22.360Z,80.07
2022-10-22T06:35:22.260Z,79.03
2022-10-22T06:36:22.296Z,79.61
2022-10-22T06:37:22.189Z,80.54
2022-10-22T06:38:22.164Z,79.03
2022-10-22T06:39:22.169Z,79.06
2022-10-22T06:40:22.370Z,79.06
2022-10-22T06:41:22.136Z,80.62
2022-10-22T06:42:22.213Z,80.62
2022-10-22T06:43:22.205Z,80.72
2022-10-22T06:44:22.161Z,81.32
2022-10-22T06:45:23.130Z,81.28
2022-10-22T06:46:23.087Z,80.51
2022-10-22T06:47:23.257Z,80.82
2022-10-22T06:48:22.054Z,81.56
2022-10-22T06:49:22.063Z,81.52
2022-10-22T06:50:22.038Z,80.3
2022-10-22T06:51:22.010Z,79.69
2022-10-22T06:52:22.039Z,79.27
2022-10-22T06:53:22.188Z,80.62
2022-10-22T06:54:23.084Z,81.12
2022-10-22T06:55:21.995Z,81.73
2022-10-22T06:56:22.071Z,81.28
2022-10-22T06:57:23.051Z,80.51
2022-10-22T06:58:22.110Z,80.92
2022-10-22T06:59:22.947Z,81.62
2022-10-22T07:00:22.072Z,80.26
2022-10-22T07:01:21.997Z,77.13
2022-10-22T07:02:21.974Z,76.5
2022-10-22T07:03:23.055Z,77.24
2022-10-22T07:04:22.949Z,78.55
2022-10-22T07:05:22.950Z,78.21
2022-10-22T07:06:22.085Z,78.05
2022-10-22T07:07:22.123Z,78.42
2022-10-22T07:08:21.933Z,79.73
2022-10-22T07:09:21.870Z,79.53
2022-10-22T07:10:21.818Z,78.92
2022-10-22T07:11:21.809Z,80.27
2022-10-22T07:12:22.865Z,80.84
2022-10-22T07:13:22.810Z,80.24
2022-10-22T07:14:21.789Z,80.3
2022-10-22T07:15:21.865Z,78.99
2022-10-22T07:16:21.965Z,78.41
2022-10-22T07:17:21.761Z,77.61
2022-10-22T07:18:21.819Z,77.81
2022-10-22T07:19:21.722Z,78.41
2022-10-22T07:20:22.140Z,77.34
2022-10-22T07:21:22.852Z,78.05
2022-10-22T07:22:21.811Z,78.65
2022-10-22T07:23:21.714Z,78.11
2022-10-22T07:24:21.893Z,77.27
2022-10-22T07:25:21.813Z,76.87
2022-10-22T07:26:21.730Z,76.06
2022-10-22T07:27:21.732Z,77.17
2022-10-22T07:28:22.766Z,77.11
2022-10-22T07:29:22.624Z,76.76
2022-10-22T07:30:21.623Z,76.67
2022-10-22T07:31:21.655Z,77.43
2022-10-22T07:32:21.730Z,76.79
2022-10-22T07:33:21.742Z,75.45
2022-10-22T07:34:21.549Z,72.5
2022-10-22T07:35:21.667Z,70.56
2022-10-22T07:36:22.591Z,67.4
2022-10-22T07:37:22.675Z,63.62
2022-10-22T07:38:21.860Z,61.71
2022-10-22T07:39:21.857Z,60.72
2022-10-22T07:40:21.712Z,58.02
2022-10-22T07:41:21.705Z,57.15
2022-10-22T07:42:21.505Z,58.69
2022-10-22T07:43:23.232Z,61.52
2022-10-22T07:44:22.899Z,65.19
2022-10-22T07:45:22.576Z,66.09
2022-10-22T07:46:21.671Z,65.79
2022-10-22T07:47:22.526Z,65.92
2022-10-22T07:48:21.453Z,69.23
2022-10-22T07:49:21.555Z,70.83
2022-10-22T07:50:22.617Z,71
2022-10-22T07:51:21.468Z,71.73
2022-10-22T07:52:21.403Z,73.07
2022-10-22T07:53:22.436Z,73.81
2022-10-22T07:54:21.350Z,72.9
2022-10-22T07:55:21.387Z,73.84
2022-10-22T07:56:21.327Z,75.38
2022-10-22T07:57:21.329Z,75.49
2022-10-22T07:58:21.508Z,74.95
2022-10-22T07:59:21.323Z,74.44
2022-10-22T08:00:21.279Z,74.31
2022-10-22T08:01:21.296Z,74.61
2022-10-22T08:02:21.373Z,74.31
2022-10-22T08:03:21.410Z,73.91
2022-10-22T08:04:21.423Z,75.05
2022-10-22T08:05:21.240Z,74.11
2022-10-22T08:06:21.223Z,74.81
2022-10-22T08:07:21.328Z,74.71
2022-10-22T08:08:21.331Z,73.97
2022-10-22T08:09:22.233Z,74.15
2022-10-22T08:10:21.161Z,76.29
2022-10-22T08:11:21.333Z,76.29
2022-10-22T08:12:22.123Z,75.45
2022-10-22T08:13:22.210Z,75.79
2022-10-22T08:14:22.453Z,76.45
2022-10-22T08:15:21.222Z,74.44
2022-10-22T08:16:21.188Z,73.47
2022-10-22T08:17:21.244Z,72.66
2022-10-22T08:18:21.107Z,71.09
2022-10-22T08:19:21.176Z,70.09
2022-10-22T08:20:21.088Z,70.59
2022-10-22T08:21:21.304Z,72.5
2022-10-22T08:22:21.076Z,72.66
2022-10-22T08:23:21.068Z,73.74
2022-10-22T08:24:21.155Z,73.2
2022-10-22T08:25:21.066Z,71.59
2022-10-22T08:26:21.160Z,69.96
2022-10-22T08:27:22.002Z,71.8
2022-10-22T08:28:21.018Z,72.5
2022-10-22T08:29:22.210Z,73.87
2022-10-22T08:30:20.975Z,71.93
2022-10-22T08:31:22.239Z,71.69
2022-10-22T08:32:22.050Z,70.16
2022-10-22T08:33:21.398Z,69.76
2022-10-22T08:34:20.945Z,68.56
2022-10-22T08:35:22.287Z,69.36
2022-10-22T08:36:22.036Z,69.93
2022-10-22T08:37:20.937Z,69.69
2022-10-22T08:38:21.266Z,67.53
2022-10-22T08:39:20.898Z,69.56
2022-10-22T08:40:20.946Z,71.23
2022-10-22T08:41:20.853Z,71.77
2022-10-22T08:42:22.056Z,73.2
2022-10-22T08:43:20.969Z,73.1
2022-10-22T08:44:22.065Z,72.77
2022-10-22T08:45:22.050Z,73.07
2022-10-22T08:46:20.878Z,73.1
2022-10-22T08:47:20.851Z,73.6
2022-10-22T08:48:21.119Z,73.4
2022-10-22T08:49:22.031Z,73.36
2022-10-22T08:50:21.772Z,73.1
2022-10-22T08:51:22.201Z,72.93
2022-10-22T08:52:21.855Z,72.53
2022-10-22T08:53:21.716Z,72.09
2022-10-22T08:54:20.926Z,71.89
2022-10-22T08:55:21.746Z,71.56
2022-10-22T08:56:21.882Z,70.96
2022-10-22T08:57:20.934Z,70.49
2022-10-22T08:58:21.922Z,67.76
2022-10-22T08:59:22.062Z,66.66
2022-10-22T09:00:21.914Z,67.6
2022-10-22T09:01:21.155Z,68.23
2022-10-22T09:02:21.083Z,68.86
2022-10-22T09:03:20.821Z,68.96
2022-10-22T09:04:20.613Z,69.09
2022-10-22T09:05:20.745Z,68.63
2022-10-22T09:06:20.755Z,67.6
2022-10-22T09:07:20.690Z,69.53
2022-10-22T09:08:20.901Z,70.62
2022-10-22T09:09:20.924Z,70.53
2022-10-22T09:10:20.683Z,69.13
2022-10-22T09:11:20.627Z,69.06
2022-10-22T09:12:20.647Z,70.09
2022-10-22T09:13:20.671Z,69.02
2022-10-22T09:17:18.405Z,66.27
2022-10-22T09:21:09.154Z,70.92
2022-10-22T09:26:30.186Z,62.27
2022-10-22T09:32:52.386Z,58.81
2022-10-22T09:37:12.357Z,66.3
2022-10-22T09:40:05.116Z,64.71
2022-10-22T09:41:05.062Z,65.17
2022-10-22T09:42:06.121Z,66.47
2022-10-22T09:43:06.016Z,65.17
2022-10-22T09:44:04.985Z,65.01
2022-10-22T09:45:05.016Z,64.51
2022-10-22T09:46:05.025Z,65.64
2022-10-22T09:47:05.005Z,64.07
2022-10-22T09:48:04.991Z,63.32
2022-10-22T09:49:05.919Z,62.52
2022-10-22T09:50:04.910Z,64.04
2022-10-22T09:51:05.607Z,66.43
2022-10-22T09:52:05.275Z,68.09
2022-10-22T09:53:04.865Z,67.86
2022-10-22T09:54:04.871Z,66.86
2022-10-22T09:56:23.473Z,67.33
2022-10-22T09:57:23.390Z,66.03
2022-10-22T09:58:23.387Z,66.56
2022-10-22T09:59:23.373Z,67.03
2022-10-22T10:00:23.379Z,66.83
2022-10-22T10:01:23.343Z,66.86
2022-10-22T10:02:23.339Z,66.3
2022-10-22T10:03:23.337Z,65.31
2022-10-22T10:05:23.323Z,61.67
2022-10-22T10:06:23.293Z,59.79
2022-10-22T10:07:23.283Z,61.66
2022-10-22T10:08:23.287Z,64.37
2022-10-22T10:09:23.291Z,63.02
2022-10-22T10:10:23.289Z,62.1
2022-10-22T10:11:23.269Z,61.27
2022-10-22T10:12:23.251Z,61.04
2022-10-22T10:13:23.216Z,61.07
2022-10-22T10:14:23.208Z,60.22
2022-10-22T10:15:23.201Z,60.4
2022-10-22T10:16:23.187Z,61.14
2022-10-22T10:17:23.183Z,59.72
2022-10-22T10:18:23.228Z,59.42
2022-10-22T10:19:23.161Z,58.77
2022-10-22T10:20:23.156Z,58.67
2022-10-22T10:21:23.132Z,58.7
2022-10-22T10:22:23.782Z,58.83
2022-10-22T10:23:23.167Z,60.47
2022-10-22T10:24:23.139Z,60.87
2022-10-22T10:25:23.100Z,63.08
2022-10-22T10:26:23.094Z,61.85
2022-10-22T10:27:23.077Z,62.48
2022-10-22T10:28:23.078Z,62.78
2022-10-22T10:29:23.071Z,62.98
2022-10-22T10:30:23.066Z,62.78
2022-10-22T10:31:23.066Z,62.23
2022-10-22T10:32:23.018Z,61.83
2022-10-22T10:33:23.779Z,61.07
2022-10-22T10:34:22.998Z,60.47
2022-10-22T10:35:22.994Z,61.6
2022-10-22T10:36:22.974Z,61.33
2022-10-22T10:37:22.999Z,61.43
2022-10-22T10:38:22.982Z,61.43
2022-10-22T10:39:22.944Z,61.5
2022-10-22T10:40:22.940Z,60.17
2022-10-22T10:41:22.969Z,59.45
2022-10-22T10:42:22.914Z,58.8
2022-10-22T10:43:23.049Z,59.25
2022-10-22T10:44:22.898Z,59.58
2022-10-22T10:45:22.906Z,59.75
2022-10-22T10:46:22.885Z,58.33
2022-10-22T10:47:22.857Z,59.25
2022-10-22T10:48:22.876Z,59.95
2022-10-22T10:49:22.844Z,60.11
2022-10-22T10:50:22.844Z,60.47
2022-10-22T10:51:22.814Z,59.75
2022-10-22T10:52:22.822Z,59.05
2022-10-22T10:53:22.820Z,58.98
2022-10-22T10:54:22.783Z,61.16
2022-10-22T10:55:22.798Z,60.83
2022-10-22T10:56:22.775Z,61.36
2022-10-22T10:57:22.803Z,61.13
2022-10-22T10:58:22.763Z,60.68
2022-10-22T10:59:22.730Z,61.13
2022-10-22T11:00:22.736Z,60.8
2022-10-22T11:01:22.839Z,59.88
2022-10-22T11:02:22.699Z,59.25
2022-10-22T11:03:22.700Z,58.65
2022-10-22T11:04:22.698Z,57.51
2022-10-22T11:05:22.726Z,57.83
2022-10-22T11:06:22.783Z,57.43
2022-10-22T11:08:22.636Z,57.53
2022-10-22T11:09:22.626Z,57.36
2022-10-22T11:10:22.614Z,58.03
2022-10-22T11:11:22.634Z,56.98
2022-10-22T11:12:22.593Z,55.09
2022-10-22T11:13:22.583Z,53.08
2022-10-22T11:14:22.587Z,53.25
2022-10-22T11:15:22.567Z,52.14
2022-10-22T11:16:22.570Z,50.73
2022-10-22T11:17:22.540Z,48.54
2022-10-22T11:18:22.530Z,51.13
2022-10-22T11:19:22.529Z,52.41
2022-10-22T11:20:22.513Z,52.73
2022-10-22T11:21:22.654Z,50.88
2022-10-22T11:22:22.494Z,48.19
2022-10-22T11:23:22.484Z,47.95
2022-10-22T11:24:22.487Z,45.79
2022-10-22T11:25:22.456Z,48
2022-10-22T11:26:22.459Z,49.89
2022-10-22T11:27:22.451Z,52.39
2022-10-22T11:28:22.427Z,53.45
2022-10-22T11:29:22.434Z,55.85
2022-10-22T11:30:22.406Z,55.99
2022-10-22T11:31:22.403Z,54
2022-10-22T11:32:22.408Z,52.76
2022-10-22T11:33:22.396Z,52.49
2022-10-22T11:34:22.366Z,53.03
2022-10-22T11:35:22.351Z,53.96
2022-10-22T11:36:22.356Z,54.7
2022-10-22T11:37:22.337Z,55.32
2022-10-22T11:38:22.324Z,56.07
2022-10-22T11:39:22.315Z,58.24
2022-10-22T11:40:22.301Z,56.94
2022-10-22T11:41:22.304Z,58.31
2022-10-22T11:42:22.283Z,58.01
2022-10-22T11:43:22.293Z,59.79
2022-10-22T11:44:22.257Z,61.25
2022-10-22T11:45:22.246Z,61.87
2022-10-22T11:46:22.245Z,62.81
2022-10-22T11:47:22.225Z,62.7
2022-10-22T11:48:22.218Z,62.6
2022-10-22T11:49:22.233Z,63.03
2022-10-22T11:50:22.248Z,63.53
2022-10-22T11:51:22.185Z,63.43
2022-10-22T11:52:22.192Z,62.57
2022-10-22T11:53:22.183Z,62.27
2022-10-22T11:54:22.172Z,62.27
2022-10-22T11:55:22.168Z,61.35
2022-10-22T11:56:22.133Z,59.34
2022-10-22T11:57:22.120Z,58.31
2022-10-22T11:58:22.108Z,58.31
2022-10-22T11:59:22.107Z,57.36
2022-10-22T12:00:22.105Z,55.91
2022-10-22T12:01:22.091Z,55.72
2022-10-22T12:02:22.087Z,56.24
2022-10-22T12:03:22.121Z,56.02
2022-10-22T12:04:22.043Z,56.14
2022-10-22T12:05:22.040Z,57.09
2022-10-22T12:06:22.041Z,58.01
2022-10-22T12:07:22.024Z,57.66
2022-10-22T12:08:22.015Z,56.49
2022-10-22T12:09:29.653Z,56.29
2022-10-22T12:10:21.982Z,56.49
2022-10-22T12:11:21.989Z,55.47
2022-10-22T12:12:21.969Z,55.76
2022-10-22T12:13:21.950Z,55.11
2022-10-22T12:14:21.945Z,54.72
2022-10-22T12:15:21.931Z,54.75
2022-10-22T12:16:21.918Z,54.1
2022-10-22T12:17:21.946Z,54.3
2022-10-22T12:18:21.912Z,53.08
2022-10-22T12:19:21.885Z,50.31
2022-10-22T12:20:22.005Z,51.28
2022-10-22T12:21:22.866Z,53.78
2022-10-22T12:22:21.856Z,55.94
2022-10-22T12:23:29.589Z,55.81
2022-10-22T12:24:22.878Z,56.85
2022-10-22T12:25:21.830Z,57.78
2022-10-22T12:26:21.955Z,57.98
2022-10-22T12:27:21.833Z,58.62
2022-10-22T12:28:21.794Z,58.92
2022-10-22T12:29:21.796Z,58.37
2022-10-22T12:30:21.786Z,58.37
2022-10-22T12:31:21.802Z,57.98
2022-10-22T12:32:21.759Z,58.5
2022-10-22T12:33:21.780Z,58.27
2022-10-22T12:34:21.874Z,57.65
2022-10-22T12:35:21.844Z,57.15
2022-10-22T12:36:21.771Z,57.87
2022-10-22T12:37:21.716Z,57.58
2022-10-22T12:38:21.748Z,57.15
2022-10-22T12:39:21.674Z,57.06
2022-10-22T12:40:21.668Z,57.48
2022-10-22T12:41:21.668Z,57.28
2022-10-22T12:42:21.647Z,57.7
2022-10-22T12:43:21.640Z,60.76
2022-10-22T12:44:21.634Z,62.41
2022-10-22T12:45:21.610Z,63.87
2022-10-22T12:46:21.622Z,63.7
2022-10-22T12:47:21.589Z,64.5
2022-10-22T12:48:21.672Z,62.35
2022-10-22T12:49:21.585Z,59.15
2022-10-22T12:50:21.556Z,56.38
2022-10-22T12:51:21.550Z,54.92
2022-10-22T12:52:22.369Z,55.11
2022-10-22T12:53:21.542Z,54.69
2022-10-22T12:54:21.527Z,58.22
2022-10-22T12:55:21.506Z,60.85
2022-10-22T12:56:21.496Z,62.43
2022-10-22T12:57:21.487Z,62.86
2022-10-22T12:58:21.488Z,61.18
2022-10-22T12:59:21.460Z,59.85
2022-10-22T13:00:21.466Z,59.32
2022-10-22T13:01:21.448Z,58.47
2022-10-22T13:02:21.435Z,58.17
2022-10-22T13:21:55.429Z,58.92
2022-10-22T13:22:55.441Z,62.04
2022-10-22T13:23:55.392Z,63.89
2022-10-22T13:24:55.405Z,64
2022-10-22T13:25:55.365Z,60.42
2022-10-22T13:26:55.353Z,57.05
2022-10-22T13:27:55.367Z,57.45
2022-10-22T13:28:55.418Z,55.7
2022-10-22T13:29:55.504Z,55.2
2022-10-22T13:30:55.321Z,55.5
2022-10-22T13:31:55.302Z,55.47
2022-10-22T13:32:55.300Z,56.12
2022-10-22T13:33:55.281Z,58.33
2022-10-22T13:34:55.273Z,57.9
2022-10-22T13:35:55.262Z,60.17
2022-10-22T13:36:55.257Z,61.87
2022-10-22T13:37:55.242Z,60.15
2022-10-22T13:38:55.232Z,56.02
2022-10-22T13:39:55.221Z,55.93
2022-10-22T13:40:55.211Z,56.45
2022-10-22T13:41:55.192Z,54.63
2022-10-22T13:42:55.185Z,54.03
2022-10-22T13:43:55.180Z,53.8
2022-10-22T13:44:55.168Z,53.96
2022-10-22T13:45:55.169Z,53.69
2022-10-22T13:46:55.144Z,54.63
2022-10-22T13:47:55.132Z,58.15
2022-10-22T13:48:55.141Z,59.51
2022-10-22T13:50:55.106Z,61.79
2022-10-22T13:51:55.103Z,62.25
2022-10-22T13:52:55.081Z,63.85
2022-10-22T13:53:55.067Z,63.06
2022-10-22T13:54:55.091Z,62.72
2022-10-22T13:55:55.046Z,63.35
2022-10-22T13:56:55.036Z,63.65
2022-10-22T13:57:55.030Z,60.97